CES2055 ZSSS-VMMC
Flight info
| Callsign | CES2055 |
|---|---|
| Flight time | N/A |
| Altitude | 36100 |
| Route | NXD W131 AKDIM A470 DUBGO W134 ELNEX A599 PLT W19 NOMAR W18 NLG |
| Aircraft | B738/M-SDE2E3FGHIRWXY/LB1 |
Departure
| Time | 2026-05-04 00:05 |
|---|---|
| Airport | Shanghai Hongqiao International Airport (ZSSS) |
Arrival
| Time | N/A |
|---|---|
| Airport | Macau International Airport (VMMC) |
| Time | Latitude | Longitude | Altitude | Speed | Heading |
|---|---|---|---|---|---|
| 2026-05-03 23:46 | 31.19590 | 121.34078 | 14 ft | 0 kts | 88° |
| 2026-05-03 23:51 | 31.19590 | 121.34072 | 14 ft | 2 kts | 88° |
| 2026-05-03 23:51 | 31.19589 | 121.34055 | 14 ft | 2 kts | 88° |
| 2026-05-03 23:52 | 31.19589 | 121.34037 | 14 ft | 2 kts | 88° |
| 2026-05-03 23:52 | 31.19589 | 121.34019 | 14 ft | 2 kts | 88° |
| 2026-05-03 23:52 | 31.19590 | 121.34003 | 14 ft | 2 kts | 115° |
| 2026-05-03 23:52 | 31.19599 | 121.33987 | 14 ft | 2 kts | 139° |
| 2026-05-03 23:53 | 31.19612 | 121.33979 | 14 ft | 2 kts | 165° |
| 2026-05-03 23:53 | 31.19620 | 121.33978 | 14 ft | 1 kts | 179° |
| 2026-05-03 23:53 | 31.19625 | 121.33978 | 14 ft | 0 kts | 178° |
| 2026-05-03 23:55 | 31.19618 | 121.33978 | 14 ft | 2 kts | 176° |
| 2026-05-03 23:55 | 31.19586 | 121.33981 | 14 ft | 5 kts | 176° |
| 2026-05-03 23:55 | 31.19528 | 121.33983 | 14 ft | 10 kts | 178° |
| 2026-05-03 23:56 | 31.19440 | 121.33988 | 14 ft | 12 kts | 178° |
| 2026-05-03 23:56 | 31.19355 | 121.33993 | 14 ft | 11 kts | 176° |
| 2026-05-03 23:56 | 31.19277 | 121.34000 | 14 ft | 10 kts | 174° |
| 2026-05-03 23:56 | 31.19206 | 121.34002 | 14 ft | 10 kts | 177° |
| 2026-05-03 23:57 | 31.19121 | 121.34005 | 14 ft | 13 kts | 177° |
| 2026-05-03 23:57 | 31.19031 | 121.34010 | 14 ft | 12 kts | 177° |
| 2026-05-03 23:57 | 31.18945 | 121.34015 | 14 ft | 11 kts | 176° |
| 2026-05-03 23:57 | 31.18865 | 121.34019 | 14 ft | 11 kts | 176° |
| 2026-05-03 23:58 | 31.18787 | 121.34026 | 14 ft | 10 kts | 174° |
| 2026-05-03 23:58 | 31.18714 | 121.34029 | 14 ft | 11 kts | 180° |
| 2026-05-03 23:58 | 31.18626 | 121.34032 | 14 ft | 13 kts | 177° |
| 2026-05-03 23:58 | 31.18523 | 121.34038 | 14 ft | 16 kts | 178° |
| 2026-05-03 23:59 | 31.18445 | 121.34041 | 14 ft | 6 kts | 182° |
| 2026-05-03 23:59 | 31.18414 | 121.34012 | 14 ft | 5 kts | 244° |
| 2026-05-03 23:59 | 31.18406 | 121.33974 | 14 ft | 4 kts | 260° |
| 2026-05-03 23:59 | 31.18401 | 121.33946 | 14 ft | 3 kts | 256° |
| 2026-05-04 00:00 | 31.18384 | 121.33905 | 14 ft | 7 kts | 238° |
| 2026-05-04 00:00 | 31.18365 | 121.33861 | 14 ft | 3 kts | 272° |
| 2026-05-04 00:00 | 31.18364 | 121.33837 | 14 ft | 2 kts | 266° |
| 2026-05-04 00:00 | 31.18364 | 121.33836 | 14 ft | 0 kts | 266° |
| 2026-05-04 00:01 | 31.18363 | 121.33827 | 14 ft | 2 kts | 266° |
| 2026-05-04 00:01 | 31.18361 | 121.33796 | 14 ft | 3 kts | 266° |
| 2026-05-04 00:02 | 31.18361 | 121.33772 | 14 ft | 2 kts | 267° |
| 2026-05-04 00:02 | 31.18360 | 121.33761 | 14 ft | 0 kts | 268° |
| 2026-05-04 00:02 | 31.18360 | 121.33753 | 14 ft | 2 kts | 270° |
| 2026-05-04 00:03 | 31.18363 | 121.33738 | 14 ft | 3 kts | 293° |
| 2026-05-04 00:03 | 31.18384 | 121.33714 | 14 ft | 3 kts | 331° |
| 2026-05-04 00:03 | 31.18405 | 121.33706 | 14 ft | 2 kts | 351° |
| 2026-05-04 00:03 | 31.18416 | 121.33705 | 14 ft | 1 kts | 356° |
| 2026-05-04 00:04 | 31.18500 | 121.33701 | 14 ft | 36 kts | 356° |
| 2026-05-04 00:04 | 31.18964 | 121.33672 | 14 ft | 94 kts | 358° |
| 2026-05-04 00:04 | 31.19808 | 121.33627 | 14 ft | 144 kts | 358° |
| 2026-05-04 00:04 | 31.20950 | 121.33557 | 16 ft | 183 kts | 355° |
| 2026-05-04 00:05 | 31.22301 | 121.33481 | 257 ft | 198 kts | 355° |
| 2026-05-04 00:05 | 31.23684 | 121.33353 | 860 ft | 197 kts | 352° |
| 2026-05-04 00:05 | 31.24998 | 121.33147 | 1528 ft | 192 kts | 343° |
| 2026-05-04 00:05 | 31.26267 | 121.32539 | 1902 ft | 201 kts | 327° |
| 2026-05-04 00:06 | 31.27370 | 121.31561 | 2504 ft | 197 kts | 315° |
| 2026-05-04 00:06 | 31.28155 | 121.30564 | 3213 ft | 185 kts | 309° |
| 2026-05-04 00:06 | 31.28906 | 121.29295 | 3446 ft | 203 kts | 296° |
| 2026-05-04 00:06 | 31.29093 | 121.27608 | 3739 ft | 221 kts | 261° |
| 2026-05-04 00:07 | 31.28629 | 121.25871 | 4228 ft | 227 kts | 255° |
| 2026-05-04 00:07 | 31.28221 | 121.24084 | 4772 ft | 227 kts | 263° |
| 2026-05-04 00:07 | 31.27853 | 121.22276 | 5333 ft | 230 kts | 256° |
| 2026-05-04 00:07 | 31.27132 | 121.20587 | 5760 ft | 243 kts | 239° |
| 2026-05-04 00:08 | 31.26066 | 121.18983 | 6147 ft | 255 kts | 237° |
| 2026-05-04 00:08 | 31.25001 | 121.17359 | 6522 ft | 266 kts | 238° |
| 2026-05-04 00:08 | 31.23885 | 121.15578 | 6956 ft | 275 kts | 239° |
| 2026-05-04 00:08 | 31.22699 | 121.13801 | 7489 ft | 283 kts | 232° |
| 2026-05-04 00:09 | 31.21098 | 121.12388 | 8093 ft | 295 kts | 208° |
| 2026-05-04 00:09 | 31.19083 | 121.11832 | 8668 ft | 306 kts | 184° |
| 2026-05-04 00:09 | 31.16928 | 121.11923 | 9258 ft | 311 kts | 178° |
| 2026-05-04 00:09 | 31.14742 | 121.12097 | 9817 ft | 316 kts | 178° |
| 2026-05-04 00:10 | 31.12557 | 121.12161 | 10440 ft | 316 kts | 186° |
| 2026-05-04 00:10 | 31.10344 | 121.11677 | 10695 ft | 326 kts | 206° |
| 2026-05-04 00:10 | 31.08397 | 121.10358 | 11064 ft | 330 kts | 223° |
| 2026-05-04 00:10 | 31.06774 | 121.08415 | 11382 ft | 337 kts | 237° |
| 2026-05-04 00:11 | 31.05491 | 121.06091 | 11713 ft | 344 kts | 248° |
| 2026-05-04 00:11 | 31.04571 | 121.03473 | 12001 ft | 355 kts | 255° |
| 2026-05-04 00:11 | 31.03872 | 121.00701 | 12455 ft | 362 kts | 258° |
| 2026-05-04 00:11 | 31.03236 | 120.97838 | 13022 ft | 366 kts | 259° |
| 2026-05-04 00:12 | 31.02620 | 120.95058 | 13742 ft | 366 kts | 258° |
| 2026-05-04 00:12 | 31.01966 | 120.92206 | 14387 ft | 369 kts | 257° |
| 2026-05-04 00:12 | 31.01274 | 120.89299 | 15128 ft | 370 kts | 257° |
| 2026-05-04 00:12 | 31.00569 | 120.86410 | 15743 ft | 375 kts | 256° |
| 2026-05-04 00:13 | 30.99840 | 120.83469 | 16386 ft | 378 kts | 256° |
| 2026-05-04 00:13 | 30.99114 | 120.80562 | 17015 ft | 380 kts | 256° |
| 2026-05-04 00:13 | 30.98373 | 120.77608 | 17661 ft | 382 kts | 256° |
| 2026-05-04 00:13 | 30.97620 | 120.74602 | 18228 ft | 385 kts | 256° |
| 2026-05-04 00:14 | 30.96877 | 120.71635 | 18977 ft | 382 kts | 256° |
| 2026-05-04 00:14 | 30.96167 | 120.68800 | 19660 ft | 380 kts | 256° |
| 2026-05-04 00:14 | 30.95422 | 120.65827 | 20305 ft | 379 kts | 255° |
| 2026-05-04 00:14 | 30.94692 | 120.62921 | 20896 ft | 379 kts | 255° |
| 2026-05-04 00:15 | 30.93952 | 120.59973 | 21482 ft | 379 kts | 255° |
| 2026-05-04 00:15 | 30.93213 | 120.57028 | 21980 ft | 380 kts | 254° |
| 2026-05-04 00:15 | 30.92477 | 120.54098 | 22560 ft | 378 kts | 254° |
| 2026-05-04 00:15 | 30.91731 | 120.51144 | 23070 ft | 378 kts | 254° |
| 2026-05-04 00:16 | 30.90905 | 120.48255 | 23519 ft | 380 kts | 250° |
| 2026-05-04 00:16 | 30.89754 | 120.45453 | 23984 ft | 383 kts | 242° |
| 2026-05-04 00:16 | 30.88203 | 120.42885 | 24420 ft | 388 kts | 234° |
| 2026-05-04 00:16 | 30.86349 | 120.40591 | 24847 ft | 394 kts | 228° |
| 2026-05-04 00:17 | 30.84257 | 120.38500 | 25256 ft | 399 kts | 224° |
| 2026-05-04 00:17 | 30.82012 | 120.36532 | 25708 ft | 401 kts | 221° |
| 2026-05-04 00:17 | 30.79711 | 120.34631 | 26177 ft | 403 kts | 220° |
| 2026-05-04 00:17 | 30.77422 | 120.32777 | 26675 ft | 403 kts | 220° |
| 2026-05-04 00:18 | 30.75095 | 120.30901 | 27056 ft | 405 kts | 220° |
| 2026-05-04 00:18 | 30.72788 | 120.29035 | 27510 ft | 406 kts | 220° |
| 2026-05-04 00:18 | 30.70470 | 120.27159 | 27981 ft | 405 kts | 220° |
| 2026-05-04 00:18 | 30.68145 | 120.25269 | 28375 ft | 407 kts | 221° |
| 2026-05-04 00:19 | 30.65818 | 120.23373 | 28693 ft | 409 kts | 221° |
| 2026-05-04 00:19 | 30.63490 | 120.21471 | 28963 ft | 413 kts | 221° |
| 2026-05-04 00:19 | 30.61123 | 120.19532 | 29324 ft | 413 kts | 221° |
| 2026-05-04 00:19 | 30.58783 | 120.17623 | 29966 ft | 408 kts | 221° |
| 2026-05-04 00:20 | 30.56480 | 120.15748 | 30815 ft | 398 kts | 221° |
| 2026-05-04 00:20 | 30.54276 | 120.13958 | 31671 ft | 387 kts | 221° |
| 2026-05-04 00:20 | 30.52072 | 120.12165 | 32432 ft | 378 kts | 221° |
| 2026-05-04 00:20 | 30.49969 | 120.10452 | 33144 ft | 369 kts | 221° |
| 2026-05-04 00:21 | 30.47884 | 120.08748 | 33635 ft | 365 kts | 222° |
| 2026-05-04 00:21 | 30.45796 | 120.07037 | 33801 ft | 368 kts | 222° |
| 2026-05-04 00:21 | 30.41414 | 120.03604 | 34077 ft | 379 kts | 219° |
| 2026-05-04 00:22 | 30.39090 | 120.02021 | 34240 ft | 383 kts | 218° |
| 2026-05-04 00:22 | 30.36759 | 120.00497 | 34456 ft | 384 kts | 217° |
| 2026-05-04 00:22 | 30.34419 | 119.98984 | 34678 ft | 385 kts | 217° |
| 2026-05-04 00:22 | 30.32095 | 119.97478 | 34974 ft | 382 kts | 217° |
| 2026-05-04 00:23 | 30.29767 | 119.95964 | 35508 ft | 375 kts | 218° |
| 2026-05-04 00:23 | 30.27650 | 119.94580 | 35996 ft | 368 kts | 218° |
| 2026-05-04 00:23 | 30.25411 | 119.93108 | 36203 ft | 367 kts | 219° |
| 2026-05-04 00:23 | 30.23149 | 119.91610 | 36211 ft | 369 kts | 218° |
| 2026-05-04 00:24 | 30.18668 | 119.88631 | 36216 ft | 373 kts | 219° |
| 2026-05-04 00:24 | 30.14155 | 119.85628 | 36214 ft | 376 kts | 218° |
| 2026-05-04 00:25 | 30.09606 | 119.82613 | 36217 ft | 373 kts | 218° |
| 2026-05-04 00:25 | 30.05092 | 119.79629 | 36220 ft | 375 kts | 218° |
| 2026-05-04 00:26 | 30.00541 | 119.76582 | 36220 ft | 375 kts | 219° |
| 2026-05-04 00:26 | 29.96041 | 119.73549 | 36221 ft | 371 kts | 218° |
| 2026-05-04 00:27 | 29.91552 | 119.70525 | 36232 ft | 375 kts | 219° |
| 2026-05-04 00:27 | 29.86993 | 119.67464 | 36234 ft | 374 kts | 218° |
| 2026-05-04 00:28 | 29.82540 | 119.64318 | 36238 ft | 371 kts | 222° |
| 2026-05-04 00:28 | 29.78274 | 119.60931 | 36239 ft | 372 kts | 222° |
| 2026-05-04 00:29 | 29.74043 | 119.57549 | 36241 ft | 372 kts | 223° |
| 2026-05-04 00:29 | 29.69749 | 119.54165 | 36246 ft | 370 kts | 222° |
| 2026-05-04 00:30 | 29.65483 | 119.50806 | 36242 ft | 370 kts | 223° |
| 2026-05-04 00:30 | 29.61625 | 119.47010 | 36245 ft | 364 kts | 231° |
| 2026-05-04 00:31 | 29.58176 | 119.42744 | 36245 ft | 362 kts | 233° |
| 2026-05-04 00:31 | 29.54820 | 119.38432 | 36243 ft | 362 kts | 233° |
| 2026-05-04 00:32 | 29.51487 | 119.34157 | 36247 ft | 363 kts | 233° |
| 2026-05-04 00:32 | 29.48092 | 119.29817 | 36240 ft | 363 kts | 233° |
| 2026-05-04 00:33 | 29.43032 | 119.23383 | 36242 ft | 361 kts | 232° |
| 2026-05-04 00:34 | 29.39661 | 119.19102 | 36243 ft | 362 kts | 232° |
| 2026-05-04 00:34 | 29.36280 | 119.14815 | 36243 ft | 363 kts | 233° |
| 2026-05-04 00:35 | 29.32889 | 119.10531 | 36244 ft | 363 kts | 232° |
| 2026-05-04 00:35 | 29.29478 | 119.06230 | 36242 ft | 362 kts | 232° |
| 2026-05-04 00:36 | 29.26087 | 119.01959 | 36243 ft | 362 kts | 232° |
| 2026-05-04 00:36 | 29.22693 | 118.97682 | 36239 ft | 363 kts | 233° |
| 2026-05-04 00:37 | 29.19286 | 118.93398 | 36239 ft | 362 kts | 232° |
| 2026-05-04 00:37 | 29.15910 | 118.89159 | 36248 ft | 362 kts | 233° |
| 2026-05-04 00:38 | 29.12513 | 118.84897 | 36242 ft | 362 kts | 232° |
| 2026-05-04 00:38 | 29.09126 | 118.80650 | 36246 ft | 362 kts | 232° |
| 2026-05-04 00:39 | 29.05701 | 118.76364 | 36243 ft | 362 kts | 233° |
| 2026-05-04 00:39 | 29.02281 | 118.72088 | 36240 ft | 363 kts | 232° |
| 2026-05-04 00:40 | 28.98875 | 118.67839 | 36240 ft | 363 kts | 232° |
| 2026-05-04 00:40 | 28.95461 | 118.63579 | 36242 ft | 364 kts | 233° |
| 2026-05-04 00:41 | 28.92024 | 118.59293 | 36243 ft | 363 kts | 232° |
| 2026-05-04 00:41 | 28.88602 | 118.55032 | 36241 ft | 364 kts | 232° |
| 2026-05-04 00:42 | 28.85161 | 118.50749 | 36241 ft | 365 kts | 233° |
| 2026-05-04 00:42 | 28.81708 | 118.46455 | 36241 ft | 364 kts | 232° |
| 2026-05-04 00:43 | 28.78291 | 118.42215 | 36241 ft | 363 kts | 233° |
| 2026-05-04 00:43 | 28.74863 | 118.37960 | 36240 ft | 366 kts | 233° |
| 2026-05-04 00:44 | 28.71399 | 118.33670 | 36238 ft | 366 kts | 232° |
| 2026-05-04 00:44 | 28.67949 | 118.29401 | 36239 ft | 365 kts | 232° |
| 2026-05-04 00:45 | 28.64512 | 118.25150 | 36237 ft | 366 kts | 232° |
| 2026-05-04 00:45 | 28.61057 | 118.20882 | 36239 ft | 365 kts | 233° |
| 2026-05-04 00:46 | 28.57618 | 118.16639 | 36237 ft | 364 kts | 232° |
| 2026-05-04 00:46 | 28.54160 | 118.12376 | 36235 ft | 365 kts | 232° |
| 2026-05-04 00:47 | 28.50706 | 118.08123 | 36239 ft | 365 kts | 232° |
| 2026-05-04 00:47 | 28.47247 | 118.03873 | 36237 ft | 364 kts | 232° |
| 2026-05-04 00:48 | 28.43874 | 117.99737 | 36232 ft | 365 kts | 233° |
| 2026-05-04 00:48 | 28.40399 | 117.95484 | 36230 ft | 366 kts | 232° |
| 2026-05-04 00:49 | 28.36868 | 117.91299 | 36232 ft | 365 kts | 231° |
| 2026-05-04 00:49 | 28.33326 | 117.87141 | 36232 ft | 367 kts | 232° |
| 2026-05-04 00:50 | 28.29781 | 117.82970 | 36232 ft | 366 kts | 232° |
| 2026-05-04 00:50 | 28.26238 | 117.78800 | 36228 ft | 365 kts | 232° |
| 2026-05-04 00:51 | 28.22717 | 117.74654 | 36229 ft | 367 kts | 231° |
| 2026-05-04 00:51 | 28.19191 | 117.70509 | 36235 ft | 363 kts | 231° |
| 2026-05-04 00:52 | 28.15673 | 117.66373 | 36236 ft | 365 kts | 232° |
| 2026-05-04 00:52 | 28.12135 | 117.62219 | 36244 ft | 366 kts | 231° |
| 2026-05-04 00:53 | 28.08588 | 117.58061 | 36244 ft | 366 kts | 232° |
| 2026-05-04 00:53 | 28.05062 | 117.53928 | 36244 ft | 365 kts | 231° |
| 2026-05-04 00:54 | 28.01505 | 117.49760 | 36238 ft | 366 kts | 232° |
| 2026-05-04 00:54 | 27.97964 | 117.45619 | 36241 ft | 367 kts | 232° |
| 2026-05-04 00:55 | 27.94431 | 117.41488 | 36249 ft | 367 kts | 232° |
| 2026-05-04 00:55 | 27.90853 | 117.37310 | 36249 ft | 366 kts | 232° |
| 2026-05-04 00:56 | 27.87310 | 117.33179 | 36250 ft | 368 kts | 231° |
| 2026-05-04 00:56 | 27.83743 | 117.29024 | 36251 ft | 368 kts | 231° |
| 2026-05-04 00:57 | 27.80181 | 117.24888 | 36250 ft | 368 kts | 232° |
| 2026-05-04 00:57 | 27.76603 | 117.20727 | 36245 ft | 368 kts | 232° |
| 2026-05-04 00:58 | 27.73023 | 117.16569 | 36242 ft | 367 kts | 232° |
| 2026-05-04 00:58 | 27.69437 | 117.12408 | 36238 ft | 369 kts | 231° |
| 2026-05-04 00:59 | 27.65875 | 117.08284 | 36239 ft | 368 kts | 232° |
| 2026-05-04 00:59 | 27.62281 | 117.04123 | 36241 ft | 370 kts | 232° |
| 2026-05-04 01:00 | 27.58692 | 116.99970 | 36242 ft | 370 kts | 232° |
| 2026-05-04 01:00 | 27.55096 | 116.95818 | 36240 ft | 369 kts | 232° |
| 2026-05-04 01:01 | 27.51483 | 116.91640 | 36239 ft | 371 kts | 232° |
| 2026-05-04 01:01 | 27.47914 | 116.87481 | 36237 ft | 371 kts | 232° |
| 2026-05-04 01:02 | 27.44337 | 116.83284 | 36231 ft | 371 kts | 232° |
| 2026-05-04 01:02 | 27.40761 | 116.79095 | 36227 ft | 371 kts | 232° |
| 2026-05-04 01:03 | 27.37185 | 116.74918 | 36226 ft | 371 kts | 232° |
| 2026-05-04 01:03 | 27.33609 | 116.70745 | 36226 ft | 371 kts | 232° |
| 2026-05-04 01:04 | 27.30025 | 116.66568 | 36228 ft | 372 kts | 232° |
| 2026-05-04 01:04 | 27.26415 | 116.62367 | 36226 ft | 371 kts | 232° |
| 2026-05-04 01:05 | 27.22830 | 116.58199 | 36221 ft | 370 kts | 232° |
| 2026-05-04 01:05 | 27.19249 | 116.54006 | 36225 ft | 372 kts | 232° |
| 2026-05-04 01:06 | 27.15750 | 116.49767 | 36225 ft | 371 kts | 233° |
| 2026-05-04 01:06 | 27.12245 | 116.45489 | 36228 ft | 371 kts | 233° |
| 2026-05-04 01:07 | 27.08748 | 116.41244 | 36230 ft | 371 kts | 233° |
| 2026-05-04 01:07 | 27.05230 | 116.36986 | 36233 ft | 371 kts | 233° |
| 2026-05-04 01:08 | 27.01695 | 116.32717 | 36234 ft | 374 kts | 232° |
| 2026-05-04 01:08 | 26.98155 | 116.28447 | 36232 ft | 372 kts | 233° |
| 2026-05-04 01:09 | 26.94619 | 116.24184 | 36232 ft | 373 kts | 232° |
| 2026-05-04 01:09 | 26.91079 | 116.19920 | 36230 ft | 374 kts | 233° |
| 2026-05-04 01:10 | 26.87548 | 116.15627 | 36233 ft | 373 kts | 233° |
| 2026-05-04 01:10 | 26.84049 | 116.11359 | 36232 ft | 374 kts | 233° |
| 2026-05-04 01:11 | 26.80512 | 116.07046 | 36227 ft | 375 kts | 233° |
| 2026-05-04 01:11 | 26.76968 | 116.02737 | 36223 ft | 374 kts | 233° |
| 2026-05-04 01:12 | 26.73457 | 115.98480 | 36223 ft | 375 kts | 233° |
| 2026-05-04 01:12 | 26.69905 | 115.94171 | 36223 ft | 375 kts | 233° |
| 2026-05-04 01:13 | 26.66356 | 115.89874 | 36226 ft | 375 kts | 233° |
| 2026-05-04 01:13 | 26.62820 | 115.85594 | 36223 ft | 376 kts | 233° |
| 2026-05-04 01:14 | 26.59258 | 115.81288 | 36226 ft | 376 kts | 233° |
| 2026-05-04 01:14 | 26.55697 | 115.76991 | 36221 ft | 375 kts | 233° |
| 2026-05-04 01:15 | 26.52126 | 115.72681 | 36219 ft | 378 kts | 233° |
| 2026-05-04 01:15 | 26.48561 | 115.68385 | 36216 ft | 377 kts | 233° |
| 2026-05-04 01:16 | 26.44981 | 115.64074 | 36223 ft | 376 kts | 233° |
| 2026-05-04 01:16 | 26.41412 | 115.59780 | 36219 ft | 377 kts | 233° |
| 2026-05-04 01:17 | 26.37841 | 115.55486 | 36221 ft | 377 kts | 233° |
| 2026-05-04 01:17 | 26.34265 | 115.51193 | 36221 ft | 378 kts | 233° |
| 2026-05-04 01:18 | 26.30665 | 115.46875 | 36221 ft | 378 kts | 233° |
| 2026-05-04 01:18 | 26.27080 | 115.42580 | 36217 ft | 378 kts | 233° |
| 2026-05-04 01:19 | 26.23496 | 115.38291 | 36214 ft | 378 kts | 233° |
| 2026-05-04 01:19 | 26.19909 | 115.34003 | 36212 ft | 379 kts | 232° |
| 2026-05-04 01:20 | 26.16324 | 115.29720 | 36207 ft | 379 kts | 233° |
| 2026-05-04 01:20 | 26.12713 | 115.25410 | 36203 ft | 378 kts | 232° |
| 2026-05-04 01:21 | 26.09121 | 115.21127 | 36206 ft | 379 kts | 232° |
| 2026-05-04 01:21 | 26.05514 | 115.16826 | 36206 ft | 379 kts | 233° |
| 2026-05-04 01:22 | 26.01903 | 115.12528 | 36207 ft | 379 kts | 233° |
| 2026-05-04 01:22 | 25.98312 | 115.08260 | 36210 ft | 380 kts | 232° |
| 2026-05-04 01:23 | 25.94693 | 115.03963 | 36213 ft | 379 kts | 232° |
| 2026-05-04 01:23 | 25.91086 | 114.99683 | 36215 ft | 380 kts | 232° |
| 2026-05-04 01:24 | 25.87461 | 114.95383 | 36215 ft | 381 kts | 232° |
| 2026-05-04 01:24 | 25.83791 | 114.91122 | 36222 ft | 381 kts | 230° |
| 2026-05-04 01:25 | 25.79388 | 114.87669 | 36217 ft | 398 kts | 213° |
| 2026-05-04 01:25 | 25.74008 | 114.85693 | 36219 ft | 412 kts | 204° |
| 2026-05-04 01:26 | 25.68352 | 114.84270 | 36216 ft | 416 kts | 202° |
| 2026-05-04 01:26 | 25.62683 | 114.82931 | 36213 ft | 416 kts | 202° |
| 2026-05-04 01:27 | 25.57014 | 114.81568 | 36208 ft | 416 kts | 202° |
| 2026-05-04 01:27 | 25.51328 | 114.80178 | 36208 ft | 416 kts | 202° |
| 2026-05-04 01:28 | 25.45676 | 114.78786 | 36211 ft | 416 kts | 202° |
| 2026-05-04 01:28 | 25.39983 | 114.77377 | 36204 ft | 419 kts | 202° |
| 2026-05-04 01:29 | 25.34264 | 114.75965 | 36204 ft | 418 kts | 202° |
| 2026-05-04 01:29 | 25.28578 | 114.74562 | 36206 ft | 417 kts | 202° |
| 2026-05-04 01:30 | 25.22922 | 114.73170 | 36205 ft | 418 kts | 202° |
| 2026-05-04 01:30 | 25.17197 | 114.71757 | 36213 ft | 419 kts | 202° |
| 2026-05-04 01:31 | 25.11510 | 114.70356 | 36216 ft | 418 kts | 202° |
| 2026-05-04 01:31 | 25.05803 | 114.68954 | 36221 ft | 418 kts | 202° |
| 2026-05-04 01:32 | 25.00076 | 114.67545 | 36221 ft | 420 kts | 202° |
| 2026-05-04 01:32 | 24.94463 | 114.66168 | 36219 ft | 421 kts | 201° |
| 2026-05-04 01:33 | 24.88699 | 114.64754 | 36217 ft | 421 kts | 202° |
| 2026-05-04 01:33 | 24.82930 | 114.63339 | 36216 ft | 422 kts | 201° |
| 2026-05-04 01:34 | 24.77174 | 114.61931 | 36212 ft | 420 kts | 201° |
| 2026-05-04 01:34 | 24.71527 | 114.60325 | 36208 ft | 416 kts | 207° |
| 2026-05-04 01:35 | 24.66255 | 114.57810 | 36040 ft | 410 kts | 215° |
| 2026-05-04 01:35 | 24.63754 | 114.56328 | 35759 ft | 406 kts | 217° |
| 2026-05-04 01:35 | 24.61299 | 114.54792 | 35480 ft | 404 kts | 217° |
| 2026-05-04 01:35 | 24.58894 | 114.53253 | 35207 ft | 404 kts | 217° |
| 2026-05-04 01:36 | 24.56426 | 114.51666 | 34926 ft | 405 kts | 218° |
| 2026-05-04 01:36 | 24.53998 | 114.50105 | 34652 ft | 407 kts | 217° |
| 2026-05-04 01:36 | 24.51533 | 114.48530 | 34373 ft | 406 kts | 217° |
| 2026-05-04 01:36 | 24.49102 | 114.46984 | 34098 ft | 407 kts | 217° |
| 2026-05-04 01:37 | 24.46648 | 114.45428 | 33824 ft | 408 kts | 217° |
| 2026-05-04 01:37 | 24.44184 | 114.43868 | 33549 ft | 409 kts | 217° |
| 2026-05-04 01:37 | 24.41682 | 114.42287 | 33270 ft | 409 kts | 217° |
| 2026-05-04 01:37 | 24.39223 | 114.40739 | 32996 ft | 410 kts | 217° |
| 2026-05-04 01:38 | 24.36735 | 114.39174 | 32734 ft | 411 kts | 217° |
| 2026-05-04 01:38 | 24.34244 | 114.37611 | 32480 ft | 412 kts | 217° |
| 2026-05-04 01:38 | 24.31756 | 114.36050 | 32227 ft | 414 kts | 216° |
| 2026-05-04 01:38 | 24.29227 | 114.34466 | 31971 ft | 415 kts | 216° |
| 2026-05-04 01:39 | 24.26724 | 114.32898 | 31717 ft | 416 kts | 216° |
| 2026-05-04 01:39 | 24.24209 | 114.31323 | 31465 ft | 419 kts | 216° |
| 2026-05-04 01:39 | 24.21668 | 114.29733 | 31209 ft | 420 kts | 216° |
| 2026-05-04 01:39 | 24.19095 | 114.28123 | 30955 ft | 420 kts | 216° |
| 2026-05-04 01:40 | 24.16570 | 114.26547 | 30702 ft | 419 kts | 216° |
| 2026-05-04 01:40 | 24.14002 | 114.24942 | 30444 ft | 423 kts | 216° |
| 2026-05-04 01:40 | 24.11461 | 114.23352 | 30195 ft | 425 kts | 216° |
| 2026-05-04 01:40 | 24.08885 | 114.21743 | 29944 ft | 426 kts | 216° |
| 2026-05-04 01:41 | 24.06299 | 114.20129 | 29688 ft | 428 kts | 215° |
| 2026-05-04 01:41 | 24.03703 | 114.18504 | 29438 ft | 429 kts | 215° |
| 2026-05-04 01:41 | 24.01102 | 114.16880 | 29180 ft | 428 kts | 215° |
| 2026-05-04 01:41 | 23.98509 | 114.15263 | 28927 ft | 430 kts | 215° |
| 2026-05-04 01:42 | 23.95893 | 114.13633 | 28673 ft | 430 kts | 214° |
| 2026-05-04 01:42 | 23.93268 | 114.12000 | 28424 ft | 431 kts | 215° |
| 2026-05-04 01:42 | 23.90640 | 114.10366 | 28178 ft | 433 kts | 214° |
| 2026-05-04 01:42 | 23.88598 | 114.09096 | 27975 ft | 432 kts | 214° |
| 2026-05-04 01:43 | 23.85984 | 114.07470 | 27732 ft | 433 kts | 214° |
| 2026-05-04 01:43 | 23.83350 | 114.05830 | 27482 ft | 436 kts | 214° |
| 2026-05-04 01:43 | 23.80728 | 114.04194 | 27231 ft | 437 kts | 214° |
| 2026-05-04 01:43 | 23.78086 | 114.02553 | 26982 ft | 434 kts | 214° |
| 2026-05-04 01:44 | 23.75432 | 114.00909 | 26725 ft | 432 kts | 214° |
| 2026-05-04 01:44 | 23.72826 | 113.99295 | 26480 ft | 432 kts | 214° |
| 2026-05-04 01:44 | 23.70372 | 113.97775 | 26243 ft | 430 kts | 214° |
| 2026-05-04 01:44 | 23.68984 | 113.96916 | 26107 ft | 429 kts | 214° |
| 2026-05-04 01:45 | 23.66972 | 113.95670 | 25916 ft | 428 kts | 214° |
| 2026-05-04 01:45 | 23.64646 | 113.94228 | 25691 ft | 428 kts | 214° |
| 2026-05-04 01:45 | 23.60033 | 113.91368 | 25251 ft | 425 kts | 214° |
| 2026-05-04 01:46 | 23.57852 | 113.90019 | 25044 ft | 423 kts | 214° |
| 2026-05-04 01:46 | 23.55292 | 113.88438 | 24795 ft | 421 kts | 214° |
| 2026-05-04 01:46 | 23.52721 | 113.86896 | 24548 ft | 422 kts | 212° |
| 2026-05-04 01:46 | 23.50044 | 113.85525 | 24303 ft | 424 kts | 207° |
| 2026-05-04 01:47 | 23.47249 | 113.84431 | 24054 ft | 425 kts | 203° |
| 2026-05-04 01:47 | 23.44408 | 113.83510 | 23807 ft | 427 kts | 201° |
| 2026-05-04 01:47 | 23.41639 | 113.82690 | 23577 ft | 426 kts | 200° |
| 2026-05-04 01:47 | 23.38770 | 113.81867 | 23337 ft | 425 kts | 200° |
| 2026-05-04 01:48 | 23.35928 | 113.81058 | 22948 ft | 419 kts | 200° |
| 2026-05-04 01:48 | 23.33138 | 113.80257 | 22422 ft | 414 kts | 200° |
| 2026-05-04 01:48 | 23.30344 | 113.79446 | 21850 ft | 410 kts | 200° |
| 2026-05-04 01:48 | 23.27579 | 113.78633 | 21278 ft | 407 kts | 200° |
| 2026-05-04 01:49 | 23.24847 | 113.77823 | 20782 ft | 401 kts | 200° |
| 2026-05-04 01:49 | 23.22190 | 113.77031 | 20277 ft | 397 kts | 201° |
| 2026-05-04 01:49 | 23.19541 | 113.76238 | 19768 ft | 392 kts | 200° |
| 2026-05-04 01:49 | 23.16903 | 113.75449 | 19262 ft | 388 kts | 201° |
| 2026-05-04 01:50 | 23.14320 | 113.74676 | 18765 ft | 383 kts | 200° |
| 2026-05-04 01:50 | 23.11730 | 113.73903 | 18272 ft | 379 kts | 200° |
| 2026-05-04 01:50 | 23.09202 | 113.73146 | 17783 ft | 375 kts | 201° |
| 2026-05-04 01:50 | 23.06721 | 113.72398 | 17299 ft | 370 kts | 201° |
| 2026-05-04 01:51 | 23.04235 | 113.71648 | 16824 ft | 366 kts | 200° |
| 2026-05-04 01:51 | 23.01794 | 113.70915 | 16345 ft | 362 kts | 200° |
| 2026-05-04 01:51 | 22.99353 | 113.70181 | 15871 ft | 357 kts | 200° |
| 2026-05-04 01:51 | 22.96987 | 113.69424 | 15477 ft | 347 kts | 205° |
| 2026-05-04 01:52 | 22.94945 | 113.68179 | 15233 ft | 328 kts | 224° |
| 2026-05-04 01:52 | 22.93457 | 113.66376 | 14996 ft | 313 kts | 238° |
| 2026-05-04 01:52 | 22.92460 | 113.64329 | 14759 ft | 302 kts | 249° |
| 2026-05-04 01:52 | 22.91793 | 113.62215 | 14523 ft | 293 kts | 255° |
| 2026-05-04 01:53 | 22.91503 | 113.60076 | 14285 ft | 286 kts | 269° |
| 2026-05-04 01:53 | 22.91743 | 113.57949 | 14051 ft | 281 kts | 281° |
| 2026-05-04 01:53 | 22.92362 | 113.55951 | 13819 ft | 277 kts | 289° |
| 2026-05-04 01:53 | 22.93238 | 113.54097 | 13584 ft | 274 kts | 299° |
| 2026-05-04 01:54 | 22.94473 | 113.52524 | 13342 ft | 274 kts | 312° |
| 2026-05-04 01:54 | 22.95980 | 113.51292 | 13102 ft | 272 kts | 322° |
| 2026-05-04 01:54 | 22.97641 | 113.50318 | 12862 ft | 271 kts | 331° |
| 2026-05-04 01:54 | 22.99464 | 113.49751 | 12623 ft | 273 kts | 346° |
| 2026-05-04 01:55 | 23.01401 | 113.49650 | 12388 ft | 274 kts | 357° |
| 2026-05-04 01:55 | 23.03286 | 113.49884 | 12152 ft | 274 kts | 6° |
| 2026-05-04 01:55 | 23.05127 | 113.50391 | 11919 ft | 273 kts | 10° |
| 2026-05-04 01:55 | 23.06979 | 113.50974 | 11676 ft | 274 kts | 11° |
| 2026-05-04 01:56 | 23.08825 | 113.51554 | 11438 ft | 273 kts | 11° |
| 2026-05-04 01:56 | 23.10658 | 113.52119 | 11198 ft | 272 kts | 10° |
| 2026-05-04 01:56 | 23.12478 | 113.52670 | 10958 ft | 270 kts | 10° |
| 2026-05-04 01:56 | 23.14277 | 113.53259 | 10714 ft | 271 kts | 16° |
| 2026-05-04 01:57 | 23.15989 | 113.54195 | 10466 ft | 275 kts | 31° |
| 2026-05-04 01:57 | 23.17410 | 113.55502 | 10234 ft | 278 kts | 44° |
| 2026-05-04 01:57 | 23.18606 | 113.57158 | 9993 ft | 277 kts | 56° |
| 2026-05-04 01:57 | 23.19487 | 113.59032 | 9752 ft | 278 kts | 69° |
| 2026-05-04 01:58 | 23.19979 | 113.61076 | 9505 ft | 277 kts | 84° |
| 2026-05-04 01:58 | 23.20031 | 113.63161 | 9266 ft | 275 kts | 97° |
| 2026-05-04 01:58 | 23.19712 | 113.65185 | 9023 ft | 269 kts | 108° |
| 2026-05-04 01:58 | 23.19128 | 113.67093 | 8780 ft | 263 kts | 118° |
| 2026-05-04 01:59 | 23.18214 | 113.68784 | 8538 ft | 259 kts | 132° |
| 2026-05-04 01:59 | 23.17012 | 113.70231 | 8299 ft | 254 kts | 140° |